Time;durP1;ratioP1;P1;durP2;ratioP2;P2;SDS_P1;SDS_P2;PMS_P1;PMS_P2;Temp;Humidity;BMP_temperature;BMP_pressure;BME280_temperature;BME280_humidity;BME280_pressure;Samples;Min_cycle;Max_cycle;Signal;HPM_P1;HPM_P2
2021/09/16 00:01:24;;;;;;;8.43;4.93;;;;;;;19.68;93.18;100154.16;5034172;28;20037;-81
2021/09/16 00:03:49;;;;;;;5.97;4.55;;;;;;;19.70;93.07;100152.28;5037750;28;20403;-80
2021/09/16 00:06:14;;;;;;;7.88;4.40;;;;;;;19.70;93.39;100154.06;5044517;28;20120;-81
2021/09/16 00:08:40;;;;;;;6.68;3.92;;;;;;;19.71;93.29;100153.13;5046849;28;20103;-81
2021/09/16 00:11:06;;;;;;;5.90;4.60;;;;;;;19.75;92.98;100161.88;5045295;28;20033;-81
2021/09/16 00:13:31;;;;;;;6.38;4.10;;;;;;;19.74;92.51;100150.31;5046039;28;20043;-80
2021/09/16 00:15:57;;;;;;;7.35;4.53;;;;;;;19.75;92.40;100160.06;5045458;28;20036;-80
2021/09/16 00:18:23;;;;;;;6.82;4.57;;;;;;;19.72;93.22;100154.88;5044472;28;20475;-79
2021/09/16 00:20:50;;;;;;;6.75;4.38;;;;;;;19.75;92.90;100159.19;5044917;28;20064;-80
2021/09/16 00:23:16;;;;;;;10.18;5.00;;;;;;;19.81;92.56;100165.13;5032533;28;20044;-81
2021/09/16 00:25:41;;;;;;;5.88;3.70;;;;;;;19.81;92.75;100162.44;5037903;28;20039;-80
2021/09/16 00:28:06;;;;;;;10.00;4.03;;;;;;;19.86;92.51;100164.91;5046108;28;20749;-81
2021/09/16 00:30:32;;;;;;;6.25;3.60;;;;;;;19.91;92.23;100165.50;5043802;28;20702;-81
2021/09/16 00:32:57;;;;;;;5.93;4.15;;;;;;;19.87;91.83;100169.31;5045515;28;20507;-81
2021/09/16 00:35:23;;;;;;;6.03;3.83;;;;;;;19.88;92.24;100166.53;5043355;28;20468;-80
2021/09/16 00:37:48;;;;;;;6.35;3.78;;;;;;;19.90;91.94;100169.16;5050370;28;20525;-80
2021/09/16 00:40:14;;;;;;;5.43;4.47;;;;;;;19.97;91.94;100175.06;5044675;28;20037;-82
2021/09/16 00:42:39;;;;;;;6.45;4.55;;;;;;;20.01;91.63;100177.50;5045796;28;20053;-81
2021/09/16 00:45:06;;;;;;;6.95;5.50;;;;;;;20.09;91.10;100174.44;5044821;28;20033;-81
2021/09/16 00:47:31;;;;;;;6.78;4.10;;;;;;;20.12;90.75;100177.84;5044742;28;20029;-81
2021/09/16 00:49:56;;;;;;;5.75;4.40;;;;;;;20.05;90.67;100179.09;5027453;28;20040;-81
2021/09/16 00:52:22;;;;;;;7.30;4.20;;;;;;;20.06;90.86;100178.13;5043446;28;20041;-81
2021/09/16 00:54:48;;;;;;;8.23;4.50;;;;;;;20.09;90.47;100186.00;5043385;28;20590;-82
2021/09/16 00:57:16;;;;;;;7.90;4.18;;;;;;;20.10;90.66;100178.84;5028446;28;20555;-80
2021/09/16 00:59:44;;;;;;;6.60;4.10;;;;;;;20.04;90.54;100182.72;5033821;28;20096;-80
2021/09/16 01:02:09;;;;;;;8.20;4.53;;;;;;;20.04;91.10;100179.16;5045382;28;20044;-80
2021/09/16 01:04:35;;;;;;;9.07;5.22;;;;;;;19.96;91.19;100182.22;5048405;28;20434;-80
2021/09/16 01:07:01;;;;;;;7.57;4.63;;;;;;;19.94;91.19;100178.78;5028718;28;20041;-80
2021/09/16 01:09:27;;;;;;;7.38;4.55;;;;;;;19.93;90.59;100177.00;5043573;28;20090;-81
2021/09/16 01:11:53;;;;;;;8.68;5.03;;;;;;;19.89;91.21;100179.00;5024565;28;20103;-81
2021/09/16 01:14:27;;;;;;;7.60;5.15;;;;;;;19.86;90.97;100175.63;5049998;28;20036;-81
2021/09/16 01:16:53;;;;;;;6.63;4.93;;;;;;;19.82;91.27;100179.38;5033680;28;20037;-81
2021/09/16 01:19:19;;;;;;;6.10;5.15;;;;;;;19.81;91.02;100183.00;5040824;28;20475;-80
2021/09/16 01:21:45;;;;;;;8.95;4.63;;;;;;;19.83;90.91;100173.97;5050162;28;20040;-81
2021/09/16 01:24:10;;;;;;;7.93;5.65;;;;;;;19.83;91.07;100181.09;5046847;28;20033;-80
2021/09/16 01:26:36;;;;;;;8.43;5.53;;;;;;;19.79;90.77;100182.22;5039144;28;20033;-80
2021/09/16 01:29:01;;;;;;;9.00;5.28;;;;;;;19.79;91.34;100187.56;5049795;28;20052;-80
2021/09/16 01:31:42;;;;;;;9.20;5.90;;;;;;;19.75;91.46;100183.28;5029988;28;20029;-81
2021/09/16 01:34:08;;;;;;;6.60;5.88;;;;;;;19.75;91.08;100185.97;5050026;28;20033;-80
2021/09/16 01:36:35;;;;;;;6.93;5.60;;;;;;;19.70;91.19;100179.06;5046610;28;20044;-81
2021/09/16 01:39:04;;;;;;;13.02;5.53;;;;;;;19.68;91.67;100188.97;5038897;28;20583;-80
2021/09/16 01:41:29;;;;;;;7.97;5.35;;;;;;;19.67;91.27;100187.22;5060496;28;20459;-80
2021/09/16 01:43:55;;;;;;;10.02;5.53;;;;;;;19.66;91.10;100184.59;5050062;28;20068;-81
2021/09/16 01:46:20;;;;;;;9.07;5.72;;;;;;;19.62;91.16;100189.25;5029118;28;20045;-80
2021/09/16 01:48:46;;;;;;;9.68;6.53;;;;;;;19.55;92.15;100182.44;5054745;28;20523;-80
2021/09/16 01:51:11;;;;;;;9.38;5.82;;;;;;;19.55;92.37;100194.97;5053304;28;20119;-80
2021/09/16 01:53:36;;;;;;;7.05;6.13;;;;;;;19.55;92.61;100189.63;5047217;28;20033;-80
2021/09/16 01:56:02;;;;;;;9.90;6.68;;;;;;;19.53;91.85;100192.34;5047843;28;20033;-80
2021/09/16 01:58:27;;;;;;;7.32;6.32;;;;;;;19.54;92.06;100191.41;5037283;28;20045;-80
2021/09/16 02:00:52;;;;;;;7.88;6.78;;;;;;;19.60;92.20;100192.94;5049350;28;20029;-81
2021/09/16 02:03:18;;;;;;;8.07;5.60;;;;;;;19.59;92.39;100191.19;5045581;28;20038;-81
2021/09/16 02:05:43;;;;;;;9.27;6.18;;;;;;;19.60;92.55;100193.81;5050088;28;20507;-81
2021/09/16 02:08:08;;;;;;;8.00;6.85;;;;;;;19.61;91.96;100192.84;5046200;28;20037;-81
2021/09/16 02:10:34;;;;;;;11.85;6.95;;;;;;;19.65;92.29;100189.09;5049273;28;20097;-81
2021/09/16 02:12:59;;;;;;;7.45;6.18;;;;;;;19.66;91.52;100188.16;5046219;28;20037;-81
2021/09/16 02:15:24;;;;;;;9.93;6.50;;;;;;;19.69;91.63;100193.38;5048297;28;20045;-79
2021/09/16 02:17:50;;;;;;;9.07;6.65;;;;;;;19.65;92.11;100190.91;5046976;28;20044;-80
2021/09/16 02:20:15;;;;;;;10.90;7.07;;;;;;;19.67;92.25;100195.25;5046905;28;20069;-81
2021/09/16 02:22:42;;;;;;;13.43;6.68;;;;;;;19.67;92.11;100189.88;5047120;28;20025;-80
2021/09/16 02:25:07;;;;;;;10.82;7.93;;;;;;;19.67;91.51;100189.88;5046580;28;20471;-81
2021/09/16 02:27:33;;;;;;;8.57;6.50;;;;;;;19.67;91.77;100189.03;5046683;28;20045;-80
2021/09/16 02:29:58;;;;;;;8.43;6.65;;;;;;;19.71;92.04;100195.97;5045075;28;20068;-80
2021/09/16 02:32:23;;;;;;;10.57;7.03;;;;;;;19.65;92.26;100202.47;5044850;28;20044;-81
2021/09/16 02:34:49;;;;;;;9.05;6.57;;;;;;;19.69;92.08;100203.22;5048524;28;20045;-80
2021/09/16 02:37:14;;;;;;;8.13;6.45;;;;;;;19.65;92.45;100201.63;5047062;28;20053;-81
2021/09/16 02:39:40;;;;;;;8.23;6.18;;;;;;;19.67;92.20;100197.06;5050381;28;20037;-80
2021/09/16 02:42:06;;;;;;;7.60;5.93;;;;;;;19.67;92.34;100205.09;5037728;28;20081;-81
2021/09/16 02:44:31;;;;;;;10.27;6.95;;;;;;;19.62;92.56;100202.63;5045805;28;20036;-79
2021/09/16 02:46:56;;;;;;;13.55;6.93;;;;;;;19.67;92.83;100213.97;5046638;28;20034;-80
2021/09/16 02:49:22;;;;;;;7.60;6.75;;;;;;;19.64;92.54;100205.22;5045875;28;20040;-81
2021/09/16 02:51:47;;;;;;;9.15;6.63;;;;;;;19.64;92.39;100210.56;5045865;28;20045;-80
2021/09/16 02:54:13;;;;;;;8.82;6.65;;;;;;;19.60;92.44;100198.28;5046686;28;20041;-80
2021/09/16 02:56:38;;;;;;;7.72;6.38;;;;;;;19.54;92.60;100210.13;5045114;28;20038;-80
2021/09/16 02:59:03;;;;;;;10.82;6.47;;;;;;;19.47;93.44;100201.56;5047326;28;20506;-80
2021/09/16 03:01:29;;;;;;;7.13;6.03;;;;;;;19.54;92.89;100211.94;5044115;28;20132;-80
2021/09/16 03:03:54;;;;;;;10.23;7.60;;;;;;;19.47;93.46;100209.59;5047461;28;20045;-81
2021/09/16 03:06:20;;;;;;;8.55;6.53;;;;;;;19.51;93.44;100218.31;5051840;28;20037;-81
2021/09/16 03:08:45;;;;;;;11.57;8.45;;;;;;;19.55;92.97;100216.38;5045273;28;20553;-80
2021/09/16 03:11:10;;;;;;;10.50;7.95;;;;;;;19.58;92.67;100222.44;5037747;28;20040;-79
2021/09/16 03:13:36;;;;;;;8.65;7.35;;;;;;;19.58;93.09;100217.09;5048996;28;20036;-80
2021/09/16 03:16:01;;;;;;;11.07;8.10;;;;;;;19.59;93.06;100216.13;5054716;28;20095;-80
2021/09/16 03:18:26;;;;;;;13.50;8.27;;;;;;;19.54;92.72;100215.50;5035751;28;20112;-81
2021/09/16 03:20:52;;;;;;;11.13;8.15;;;;;;;19.53;93.27;100227.16;5046221;28;20072;-80
2021/09/16 03:23:17;;;;;;;10.27;8.65;;;;;;;19.56;93.37;100224.31;5044149;28;20083;-80
2021/09/16 03:25:42;;;;;;;12.85;8.98;;;;;;;19.54;93.10;100234.22;5046340;28;20044;-80
2021/09/16 03:28:08;;;;;;;11.43;9.48;;;;;;;19.59;92.57;100225.97;5044165;28;20041;-80
2021/09/16 03:30:33;;;;;;;12.95;9.23;;;;;;;19.61;92.51;100224.97;5047830;28;20104;-79
2021/09/16 03:32:58;;;;;;;15.80;9.05;;;;;;;19.64;92.09;100222.13;5026097;28;20534;-80
2021/09/16 03:35:24;;;;;;;12.00;9.10;;;;;;;19.64;92.35;100216.78;5046584;28;20453;-80
2021/09/16 03:37:49;;;;;;;10.88;9.20;;;;;;;19.66;92.18;100222.97;5044722;28;20040;-81
2021/09/16 03:40:14;;;;;;;15.88;10.15;;;;;;;19.56;91.37;100213.59;5045664;28;20033;-80
2021/09/16 03:42:40;;;;;;;10.63;9.00;;;;;;;19.59;92.19;100212.59;5045256;28;20056;-81
2021/09/16 03:45:06;;;;;;;12.38;9.73;;;;;;;19.60;92.09;100209.84;5056397;28;20143;-81
2021/09/16 03:47:31;;;;;;;14.77;11.65;;;;;;;19.59;91.22;100212.59;5044610;28;20483;-79
2021/09/16 03:49:56;;;;;;;16.83;12.90;;;;;;;19.52;90.85;100213.81;5045839;28;20563;-81
2021/09/16 03:52:22;;;;;;;16.35;11.70;;;;;;;19.45;91.28;100215.94;5030595;28;20083;-80
2021/09/16 03:54:47;;;;;;;15.05;13.40;;;;;;;19.31;91.99;100219.28;5050850;28;20040;-80
2021/09/16 03:57:13;;;;;;;16.52;13.68;;;;;;;19.35;91.77;100217.31;5014674;28;20626;-80
2021/09/16 03:59:38;;;;;;;17.17;14.00;;;;;;;19.33;92.07;100221.88;5047613;28;20128;-80
2021/09/16 04:02:04;;;;;;;14.48;12.90;;;;;;;19.32;91.43;100223.69;5043402;28;20044;-80
2021/09/16 04:04:29;;;;;;;15.30;13.15;;;;;;;19.31;92.00;100223.75;5045075;28;20044;-80
2021/09/16 04:06:54;;;;;;;19.42;14.80;;;;;;;19.27;91.71;100231.91;5043805;28;20076;-81
2021/09/16 04:09:20;;;;;;;16.35;14.40;;;;;;;19.20;92.02;100230.50;5044837;28;20029;-79
2021/09/16 04:11:45;;;;;;;16.23;14.05;;;;;;;19.18;92.22;100234.19;5044598;28;20040;-79
2021/09/16 04:14:11;;;;;;;19.20;16.05;;;;;;;19.11;92.65;100232.72;5042901;28;20045;-79
2021/09/16 04:16:36;;;;;;;22.30;17.85;;;;;;;19.07;92.85;100226.63;5033945;28;20060;-79
2021/09/16 04:19:02;;;;;;;18.02;15.60;;;;;;;19.00;93.07;100230.53;5042404;28;20061;-78
2021/09/16 04:21:27;;;;;;;26.60;20.30;;;;;;;18.93;92.21;100229.09;5057091;28;20029;-79
2021/09/16 04:23:52;;;;;;;26.45;22.77;;;;;;;18.80;92.64;100237.66;5054594;28;20522;-79
2021/09/16 04:26:18;;;;;;;26.27;20.63;;;;;;;18.77;92.42;100232.44;5041179;28;20045;-80
2021/09/16 04:28:43;;;;;;;23.48;20.25;;;;;;;18.70;92.50;100236.28;5044560;28;20454;-80
2021/09/16 04:31:09;;;;;;;29.33;24.38;;;;;;;18.66;92.67;100240.03;5041880;28;20032;-78
2021/09/16 04:33:35;;;;;;;30.30;26.08;;;;;;;18.59;93.12;100242.09;5043790;28;20042;-81
2021/09/16 04:36:00;;;;;;;27.75;24.55;;;;;;;18.63;92.37;100242.84;5043510;28;20484;-79
2021/09/16 04:38:26;;;;;;;30.83;26.85;;;;;;;18.59;92.63;100238.56;5044801;28;20111;-81
2021/09/16 04:40:51;;;;;;;31.48;25.13;;;;;;;18.62;92.60;100251.78;5044496;28;20092;-80
2021/09/16 04:43:16;;;;;;;34.95;28.80;;;;;;;18.62;91.75;100243.78;5052163;28;20029;-79
2021/09/16 04:45:42;;;;;;;34.88;29.40;;;;;;;18.58;92.09;100251.06;5044385;28;20075;-80
2021/09/16 04:48:07;;;;;;;36.70;28.95;;;;;;;18.61;92.13;100255.41;5046171;28;20123;-79
2021/09/16 04:50:33;;;;;;;32.72;29.17;;;;;;;18.60;91.90;100267.91;5032467;28;20615;-80
2021/09/16 04:52:58;;;;;;;35.05;29.75;;;;;;;18.62;91.69;100273.19;5050890;28;20483;-80
2021/09/16 04:55:24;;;;;;;31.48;28.05;;;;;;;18.70;91.02;100275.50;5047645;28;20048;-79
2021/09/16 04:57:49;;;;;;;33.03;27.92;;;;;;;18.66;92.19;100274.78;5055623;28;20037;-80
2021/09/16 05:00:15;;;;;;;31.60;27.60;;;;;;;18.74;91.50;100272.66;5048394;28;20044;-81
2021/09/16 05:02:40;;;;;;;30.55;25.63;;;;;;;18.80;91.09;100279.56;5045045;28;20527;-80
2021/09/16 05:05:07;;;;;;;30.05;26.77;;;;;;;18.79;90.82;100281.38;5029887;28;20052;-80
2021/09/16 05:07:32;;;;;;;32.15;27.27;;;;;;;18.75;91.59;100290.44;5052376;28;20032;-81
2021/09/16 05:09:58;;;;;;;34.95;29.48;;;;;;;18.73;91.55;100286.97;5044712;28;20112;-80
2021/09/16 05:12:23;;;;;;;31.73;27.00;;;;;;;18.77;91.04;100287.72;5049258;28;20407;-80
2021/09/16 05:14:49;;;;;;;31.20;27.02;;;;;;;18.81;90.91;100290.19;5047559;28;20447;-81
2021/09/16 05:17:14;;;;;;;35.08;29.27;;;;;;;18.78;90.58;100301.00;5045729;28;20038;-81
2021/09/16 05:19:39;;;;;;;30.25;26.35;;;;;;;18.77;90.67;100293.94;5045901;28;20449;-80
2021/09/16 05:22:05;;;;;;;31.20;27.85;;;;;;;18.78;90.44;100306.34;5048007;28;20124;-80
2021/09/16 05:24:30;;;;;;;28.42;25.05;;;;;;;18.80;90.80;100300.94;5056731;28;20024;-80
2021/09/16 05:26:56;;;;;;;29.85;25.40;;;;;;;18.79;90.88;100310.78;5054862;28;20481;-80
2021/09/16 05:29:21;;;;;;;35.17;28.75;;;;;;;18.74;90.55;100310.06;5042896;28;20392;-81
2021/09/16 05:31:47;;;;;;;29.40;25.63;;;;;;;18.76;91.08;100310.06;5045269;28;20045;-80
2021/09/16 05:34:12;;;;;;;33.45;28.70;;;;;;;18.74;90.60;100311.88;5025820;28;20045;-81
2021/09/16 05:36:37;;;;;;;31.95;27.35;;;;;;;18.78;90.45;100316.19;5044671;28;20033;-81
2021/09/16 05:39:04;;;;;;;33.80;29.08;;;;;;;18.81;90.10;100310.69;5044627;28;20044;-81
2021/09/16 05:41:30;;;;;;;27.92;24.83;;;;;;;18.89;89.62;100310.34;5043715;28;20077;-80
2021/09/16 05:43:56;;;;;;;33.17;26.63;;;;;;;18.92;89.29;100316.47;5043482;28;20107;-80
2021/09/16 05:46:22;;;;;;;31.13;27.30;;;;;;;18.90;88.84;100320.13;5048273;28;20064;-80
2021/09/16 05:48:48;;;;;;;28.88;25.65;;;;;;;18.92;88.53;100323.63;5047063;28;20040;-80
2021/09/16 05:51:14;;;;;;;28.33;25.30;;;;;;;18.95;88.43;100331.50;5042635;28;20036;-81
2021/09/16 05:53:39;;;;;;;29.60;25.70;;;;;;;18.90;88.69;100330.84;5045680;28;20040;-81
2021/09/16 05:56:04;;;;;;;32.47;27.20;;;;;;;18.88;88.52;100335.38;5044013;28;20047;-81
2021/09/16 05:58:30;;;;;;;33.85;26.00;;;;;;;18.82;88.91;100328.50;5049155;28;20028;-80
2021/09/16 06:00:55;;;;;;;27.75;24.77;;;;;;;18.87;88.75;100326.50;5028490;28;20037;-80
2021/09/16 06:03:20;;;;;;;28.40;25.35;;;;;;;18.92;87.91;100337.00;5048123;28;20037;-80
2021/09/16 06:05:46;;;;;;;28.38;24.77;;;;;;;18.92;87.64;100335.19;5029535;28;20044;-81
2021/09/16 06:08:11;;;;;;;30.92;26.13;;;;;;;18.94;87.37;100333.31;5046443;28;20038;-81
2021/09/16 06:10:36;;;;;;;26.45;23.30;;;;;;;18.97;87.07;100332.31;5046655;28;20067;-79
2021/09/16 06:13:02;;;;;;;28.77;24.85;;;;;;;18.97;87.08;100333.19;5047392;28;20143;-80
2021/09/16 06:15:27;;;;;;;30.23;25.55;;;;;;;19.09;86.50;100336.22;5033919;28;20598;-81
2021/09/16 06:17:52;;;;;;;30.55;25.35;;;;;;;19.17;86.20;100339.44;5048500;28;20455;-79
2021/09/16 06:20:18;;;;;;;33.05;26.08;;;;;;;19.11;85.82;100339.72;5048614;28;20033;-81
2021/09/16 06:22:46;;;;;;;28.52;24.98;;;;;;;19.11;85.48;100345.94;5048474;28;20037;-80
2021/09/16 06:25:14;;;;;;;27.30;22.48;;;;;;;19.15;85.37;100338.63;5048471;28;20463;-80
2021/09/16 06:27:39;;;;;;;24.42;21.83;;;;;;;19.15;85.41;100341.28;5039114;28;20040;-80
2021/09/16 06:30:05;;;;;;;26.08;23.27;;;;;;;19.25;85.07;100343.50;5050383;28;20037;-80
2021/09/16 06:32:33;;;;;;;23.85;21.25;;;;;;;19.28;83.58;100342.47;5052736;28;20510;-81
2021/09/16 06:34:58;;;;;;;23.63;20.95;;;;;;;19.24;84.58;100344.44;5050146;28;20033;-79
2021/09/16 06:37:24;;;;;;;26.58;23.25;;;;;;;19.25;84.86;100353.31;5053777;28;20048;-79
2021/09/16 06:39:49;;;;;;;25.38;21.83;;;;;;;19.29;84.35;100352.28;5055995;28;20402;-80
2021/09/16 06:42:14;;;;;;;24.60;21.65;;;;;;;19.27;84.61;100357.69;5037312;28;20091;-80
2021/09/16 06:44:40;;;;;;;22.70;20.15;;;;;;;19.32;83.15;100364.63;5052686;28;20025;-80
2021/09/16 06:47:05;;;;;;;29.35;22.40;;;;;;;19.25;83.64;100359.53;5052079;28;20049;-81
2021/09/16 06:49:36;;;;;;;21.65;19.33;;;;;;;19.17;82.80;100375.06;5055757;28;20032;-80
2021/09/16 06:52:01;;;;;;;22.55;17.70;;;;;;;19.09;81.44;100373.69;5051535;28;20487;-80
2021/09/16 06:54:26;;;;;;;17.48;15.35;;;;;;;18.96;79.44;100378.69;5044862;28;20091;-80
2021/09/16 06:56:52;;;;;;;18.77;14.20;;;;;;;18.81;79.66;100375.75;5047924;28;20076;-80
2021/09/16 06:59:17;;;;;;;16.33;14.23;;;;;;;18.77;80.39;100376.81;5044495;28;20037;-81
2021/09/16 07:01:42;;;;;;;17.13;13.73;;;;;;;18.78;79.97;100381.22;5048133;28;20044;-80
2021/09/16 07:04:08;;;;;;;16.05;13.00;;;;;;;18.70;78.89;100380.63;5026450;28;20025;-80
2021/09/16 07:06:33;;;;;;;18.45;12.38;;;;;;;18.67;79.52;100386.13;5020574;28;20032;-81
2021/09/16 07:08:58;;;;;;;16.90;12.80;;;;;;;18.56;79.47;100394.59;5037315;28;20037;-80
2021/09/16 07:11:24;;;;;;;15.70;12.30;;;;;;;18.59;80.01;100402.47;5049114;28;20057;-79
2021/09/16 07:13:49;;;;;;;15.50;13.25;;;;;;;18.57;80.30;100393.63;5055381;28;20048;-80
2021/09/16 07:16:15;;;;;;;16.98;14.02;;;;;;;18.61;80.70;100394.41;5053239;28;20039;-79
2021/09/16 07:18:40;;;;;;;17.98;15.30;;;;;;;18.64;80.56;100391.59;5042636;28;20048;-78
2021/09/16 07:21:05;;;;;;;16.90;14.30;;;;;;;18.65;81.03;100389.78;5051617;28;20071;-78
2021/09/16 07:23:31;;;;;;;17.52;15.13;;;;;;;18.62;80.94;100390.78;5062665;28;20044;-79
2021/09/16 07:25:56;;;;;;;18.38;15.15;;;;;;;18.55;81.76;100400.00;5041079;28;20061;-79
2021/09/16 07:28:22;;;;;;;20.85;16.67;;;;;;;18.56;81.73;100396.41;5058466;28;20033;-78
2021/09/16 07:30:47;;;;;;;19.98;16.20;;;;;;;18.52;81.84;100400.09;5065858;28;20044;-79
2021/09/16 07:33:12;;;;;;;20.65;17.25;;;;;;;18.52;82.41;100410.78;5058614;28;20052;-79
2021/09/16 07:35:38;;;;;;;19.92;16.33;;;;;;;18.59;83.00;100402.47;5053291;28;20032;-78
2021/09/16 07:38:03;;;;;;;22.38;16.45;;;;;;;18.71;81.95;100410.94;5058716;28;20036;-78
2021/09/16 07:40:28;;;;;;;16.75;13.32;;;;;;;18.72;81.50;100416.19;5055841;28;20041;-79
2021/09/16 07:42:54;;;;;;;16.58;13.85;;;;;;;18.69;81.30;100419.00;5052765;28;20037;-78
2021/09/16 07:45:19;;;;;;;18.55;14.05;;;;;;;18.61;81.89;100421.13;5052735;28;20132;-79
2021/09/16 07:47:44;;;;;;;16.00;12.80;;;;;;;18.58;80.78;100419.44;5054314;28;20499;-78
2021/09/16 07:50:10;;;;;;;12.63;10.27;;;;;;;18.59;80.39;100423.84;5052030;28;20085;-79
2021/09/16 07:52:36;;;;;;;12.65;10.48;;;;;;;18.58;79.58;100426.59;5068469;28;20102;-79
2021/09/16 07:55:01;;;;;;;11.63;9.98;;;;;;;18.64;78.83;100433.50;5056156;28;20036;-79
2021/09/16 07:57:27;;;;;;;12.77;10.00;;;;;;;18.68;79.47;100425.28;5050573;28;20091;-79
2021/09/16 07:59:52;;;;;;;11.45;8.65;;;;;;;18.78;79.82;100421.31;5043400;28;20037;-78
2021/09/16 08:02:17;;;;;;;12.93;10.75;;;;;;;18.79;79.85;100420.41;5067171;28;20120;-79
2021/09/16 08:04:43;;;;;;;14.48;10.85;;;;;;;18.95;79.41;100425.09;5060596;28;20048;-78
2021/09/16 08:07:09;;;;;;;13.35;10.07;;;;;;;19.07;79.04;100424.56;5051458;28;20040;-78
2021/09/16 08:09:34;;;;;;;14.05;10.90;;;;;;;19.16;78.81;100432.19;5055983;28;20037;-78
2021/09/16 08:11:59;;;;;;;11.75;9.70;;;;;;;19.29;78.66;100429.00;5038816;28;20060;-79
2021/09/16 08:14:25;;;;;;;13.77;10.75;;;;;;;19.43;77.60;100430.09;5058873;28;20028;-78
2021/09/16 08:16:50;;;;;;;13.85;10.73;;;;;;;19.58;77.37;100431.25;5058667;28;20142;-79
2021/09/16 08:19:15;;;;;;;12.05;10.68;;;;;;;19.66;77.06;100426.44;5050244;28;20053;-78
2021/09/16 08:21:41;;;;;;;13.18;10.98;;;;;;;19.64;76.04;100425.59;5050118;28;20037;-78
2021/09/16 08:24:07;;;;;;;12.27;10.20;;;;;;;19.80;75.67;100427.63;5053495;28;20037;-78
2021/09/16 08:26:32;;;;;;;12.43;10.73;;;;;;;20.04;75.08;100422.91;5032788;28;20049;-78
2021/09/16 08:28:58;;;;;;;14.20;10.38;;;;;;;20.10;73.17;100423.50;5052440;28;20499;-78
2021/09/16 08:31:23;;;;;;;10.80;9.02;;;;;;;20.02;72.18;100427.50;5052653;28;20124;-79
2021/09/16 08:33:49;;;;;;;12.65;9.02;;;;;;;19.94;72.72;100422.50;5051582;28;20037;-78
2021/09/16 08:36:15;;;;;;;12.57;9.10;;;;;;;19.88;72.61;100422.75;5035556;28;20033;-78
2021/09/16 08:38:40;;;;;;;11.23;8.90;;;;;;;19.83;72.67;100419.44;5051618;28;20063;-78
2021/09/16 08:41:07;;;;;;;12.30;9.40;;;;;;;19.64;73.14;100414.03;5039584;28;20030;-78
2021/09/16 08:43:34;;;;;;;13.68;11.30;;;;;;;19.58;73.45;100420.53;5055169;28;20143;-78
2021/09/16 08:46:01;;;;;;;20.02;14.25;;;;;;;19.63;73.47;100417.66;5036819;28;20056;-79
2021/09/16 08:48:26;;;;;;;12.15;10.15;;;;;;;19.67;73.44;100421.94;5054530;28;20028;-79
2021/09/16 08:50:52;;;;;;;13.90;11.30;;;;;;;19.63;73.97;100423.88;5054921;28;20055;-79
2021/09/16 08:53:26;;;;;;;13.70;12.00;;;;;;;19.58;73.30;100431.25;5039831;28;20073;-78
2021/09/16 08:55:53;;;;;;;15.52;11.75;;;;;;;19.78;73.30;100432.16;5054129;28;20043;-78
2021/09/16 08:58:22;;;;;;;11.48;10.27;;;;;;;19.74;72.05;100430.59;5058753;28;20078;-78
2021/09/16 09:00:48;;;;;;;13.75;11.65;;;;;;;19.85;72.86;100431.81;5057859;28;20032;-78
2021/09/16 09:03:13;;;;;;;13.20;11.05;;;;;;;19.98;72.97;100432.13;5050853;28;20041;-78
2021/09/16 09:05:41;;;;;;;14.93;13.38;;;;;;;19.98;72.17;100434.78;5051269;28;20033;-78
2021/09/16 09:08:07;;;;;;;13.20;11.10;;;;;;;20.06;72.82;100427.25;5048484;28;20041;-78
2021/09/16 09:10:45;;;;;;;12.48;9.55;;;;;;;19.89;71.68;100429.88;5052955;28;20095;-78
2021/09/16 09:13:21;;;;;;;13.35;11.70;;;;;;;19.63;72.36;100441.75;5049049;28;20030;-78
2021/09/16 09:15:49;;;;;;;12.27;11.02;;;;;;;19.64;71.71;100435.44;5053426;28;20056;-78
2021/09/16 09:18:16;;;;;;;11.85;9.93;;;;;;;19.48;72.89;100436.13;5056923;28;20037;-78
2021/09/16 09:21:04;;;;;;;17.63;11.45;;;;;;;19.48;73.69;100435.25;5054599;28;20044;-79
2021/09/16 09:23:35;;;;;;;14.48;12.75;;;;;;;19.66;72.85;100423.75;5041340;28;20029;-79
2021/09/16 09:26:21;;;;;;;15.27;12.38;;;;;;;19.81;72.74;100432.03;5024813;28;20038;-78
2021/09/16 09:28:50;;;;;;;11.85;9.60;;;;;;;19.98;73.05;100424.06;5052340;28;20431;-79
2021/09/16 09:31:19;;;;;;;15.52;10.98;;;;;;;19.98;72.08;100423.22;5052223;28;20096;-79
2021/09/16 09:33:45;;;;;;;13.02;10.10;;;;;;;19.86;72.39;100424.69;5055756;28;20060;-78
2021/09/16 09:36:18;;;;;;;11.30;10.02;;;;;;;19.88;71.53;100431.66;5042319;28;20064;-80
2021/09/16 09:38:55;;;;;;;11.48;9.27;;;;;;;19.75;70.98;100424.28;5052837;28;20062;-79
2021/09/16 09:41:35;;;;;;;11.40;8.82;;;;;;;19.72;71.32;100427.09;5043149;28;20037;-79
2021/09/16 09:44:08;;;;;;;11.77;10.57;;;;;;;19.61;71.76;100427.56;5053932;28;20497;-78
2021/09/16 09:46:42;;;;;;;12.05;10.77;;;;;;;19.60;72.55;100418.66;5050812;28;20095;-79
2021/09/16 09:49:10;;;;;;;12.23;10.70;;;;;;;19.56;73.73;100432.25;5055833;28;20099;-79
2021/09/16 09:51:44;;;;;;;14.55;10.43;;;;;;;19.66;73.20;100438.94;5052607;28;20100;-78
2021/09/16 09:54:40;;;;;;;14.07;12.57;;;;;;;19.68;72.97;100424.56;5052472;28;20033;-79
2021/09/16 09:57:18;;;;;;;15.73;11.63;;;;;;;19.86;72.56;100435.38;5050773;28;20503;-79
2021/09/16 09:59:59;;;;;;;14.80;13.25;;;;;;;19.77;72.88;100425.09;5057070;28;20096;-78
2021/09/16 10:02:29;;;;;;;13.70;11.52;;;;;;;19.78;72.49;100422.34;5058870;28;20487;-78
2021/09/16 10:04:54;;;;;;;11.95;10.68;;;;;;;19.68;71.80;100432.59;5060428;28;20132;-79
2021/09/16 10:07:38;;;;;;;13.05;10.63;;;;;;;19.59;73.26;100432.97;5060627;28;20029;-79
2021/09/16 10:10:09;;;;;;;11.18;8.90;;;;;;;19.56;72.97;100434.91;5044791;28;20041;-77
2021/09/16 10:12:35;;;;;;;12.20;10.85;;;;;;;19.55;72.16;100436.75;5048760;28;20048;-78
2021/09/16 10:15:01;;;;;;;14.73;11.68;;;;;;;19.54;72.26;100434.97;5048846;28;20067;-79
2021/09/16 10:17:27;;;;;;;12.55;11.25;;;;;;;19.57;72.29;100431.28;5061021;28;20059;-78
2021/09/16 10:19:53;;;;;;;13.85;11.15;;;;;;;19.65;72.71;100424.69;5061779;28;20041;-79
2021/09/16 10:22:18;;;;;;;13.98;11.32;;;;;;;19.78;71.87;100425.03;5046355;28;20063;-77
2021/09/16 10:24:45;;;;;;;11.65;9.07;;;;;;;19.89;71.39;100420.03;5048841;28;20399;-78
2021/09/16 10:27:47;;;;;;;10.82;9.02;;;;;;;20.16;70.35;100421.47;5051661;28;20020;-80
2021/09/16 10:30:22;;;;;;;;;;;;;;;20.52;69.35;100419.69;5036483;28;20041;-80
2021/09/16 10:33:07;;;;;;;11.07;7.95;;;;;;;20.99;67.87;100419.16;5048435;28;19912;-79
2021/09/16 10:35:36;;;;;;;15.50;10.80;;;;;;;21.18;66.72;100418.22;5066269;28;20053;-80
2021/09/16 10:38:20;;;;;;;8.48;6.60;;;;;;;21.27;64.75;100422.22;5049454;28;20033;-79
2021/09/16 10:40:46;;;;;;;10.05;6.88;;;;;;;21.18;64.72;100429.81;5054116;28;20037;-79
2021/09/16 10:43:21;;;;;;;7.68;5.05;;;;;;;20.93;63.68;100422.16;5047291;28;20060;-79
2021/09/16 10:45:46;;;;;;;7.07;4.93;;;;;;;20.79;63.92;100420.16;5058656;28;20066;-79
2021/09/16 10:48:17;;;;;;;8.27;4.47;;;;;;;20.76;63.99;100422.16;5061878;28;20480;-77
2021/09/16 10:50:44;;;;;;;8.18;5.00;;;;;;;20.72;63.65;100417.88;5059720;28;20060;-79
2021/09/16 10:53:32;;;;;;;7.13;3.70;;;;;;;20.77;63.74;100416.69;5043091;28;20037;-79
2021/09/16 10:55:57;;;;;;;5.43;3.85;;;;;;;20.68;63.30;100427.88;5057419;28;20037;-79
2021/09/16 10:58:27;;;;;;;6.35;3.78;;;;;;;20.67;63.18;100419.91;5039909;28;20075;-80
2021/09/16 11:00:53;;;;;;;7.43;4.18;;;;;;;20.69;63.37;100421.56;5063336;28;20044;-78
2021/09/16 11:03:19;;;;;;;6.05;4.13;;;;;;;20.76;62.76;100423.00;5051786;28;20533;-81
2021/09/16 11:05:55;;;;;;;7.03;4.30;;;;;;;20.99;63.44;100423.66;5054401;28;20032;-80
2021/09/16 11:08:22;;;;;;;5.95;4.50;;;;;;;21.29;62.23;100425.69;5055329;28;20048;-81
2021/09/16 11:10:50;;;;;;;6.07;4.32;;;;;;;21.26;61.44;100426.72;5036305;28;20041;-80
2021/09/16 11:13:34;;;;;;;5.60;4.63;;;;;;;21.08;61.67;100427.69;5034950;28;20407;-80